Fort Wayne (FWA/KFWA)

Map

Destinations

Information

Location
Fort Wayne, IN
Local Time
23:43 / 11:43 pm
GMT Time
03:43 / 3:43 am
Gates
7
No FAA reported delays
METAR KFWA 170254Z 14004KT 10SM BKN170 OVC250 25/20 A2996 RMK AO2 SLP138 T02500200 51001
TAF KFWA 162325Z 1700/1724 16007KT P6SM FEW060 BKN150 FM170800 16006KT 6SM -SHRA VCTS OVC035CB FM171400 20010KT P6SM VCSH OVC035 FM171700 21013G20KT P6SM VCTS BKN040CB